Time;durP1;ratioP1;P1;durP2;ratioP2;P2;SDS_P1;SDS_P2;PMS_P1;PMS_P2;Temp;Humidity;BMP_temperature;BMP_pressure;BME280_temperature;BME280_humidity;BME280_pressure;Samples;Min_cycle;Max_cycle;Signal;HPM_P1;HPM_P2
2023/05/07 00:00:33;;;;;;;;;4.00;4.00;;;;;21.53;51.12;100994.44;4985693;28;45301;-48
2023/05/07 00:02:59;;;;;;;;;4.25;3.00;;;;;21.53;51.15;100990.03;4979356;28;45310;-46
2023/05/07 00:05:24;;;;;;;;;3.00;3.00;;;;;21.53;51.22;100990.03;4977330;28;45561;-46
2023/05/07 00:07:50;;;;;;;;;2.00;2.00;;;;;21.53;51.36;100983.91;4977370;28;46257;-46
2023/05/07 00:10:15;;;;;;;;;3.75;3.25;;;;;21.53;51.11;100984.75;4977830;28;45362;-45
2023/05/07 00:12:41;;;;;;;;;3.25;3.25;;;;;21.53;51.50;100986.53;4986931;28;47857;-45
2023/05/07 00:15:07;;;;;;;;;3.50;3.25;;;;;21.53;51.32;100981.25;4998362;28;45255;-46
2023/05/07 00:17:33;;;;;;;;;3.25;1.00;;;;;21.54;51.30;100986.47;4978737;28;46127;-46
2023/05/07 00:19:58;;;;;;;;;2.00;2.00;;;;;21.53;51.35;100978.63;4977403;28;45829;-45
2023/05/07 00:22:23;;;;;;;;;4.00;2.00;;;;;21.53;51.23;100990.03;4976513;28;62788;-46
2023/05/07 00:24:49;;;;;;;;;2.75;2.75;;;;;21.53;51.31;100990.03;4977678;28;45487;-45
2023/05/07 00:27:14;;;;;;;;;2.25;2.25;;;;;21.53;51.51;100992.69;4977171;28;45310;-45
2023/05/07 00:29:39;;;;;;;;;3.00;2.00;;;;;21.53;51.18;100995.31;4977189;28;45195;-45
2023/05/07 00:32:05;;;;;;;;;2.50;2.25;;;;;21.54;51.33;100991.75;4976610;28;58490;-51
2023/05/07 00:34:30;;;;;;;;;2.75;2.75;;;;;21.53;51.32;100999.72;4980539;28;45250;-46
2023/05/07 00:36:55;;;;;;;;;4.50;2.00;;;;;21.54;51.11;101009.34;4984922;28;47469;-46
2023/05/07 00:39:21;;;;;;;;;3.75;3.00;;;;;21.53;51.15;101000.59;4984587;28;45258;-47
2023/05/07 00:41:47;;;;;;;;;2.00;2.00;;;;;21.52;51.63;101000.66;4978813;28;45193;-46
2023/05/07 00:44:12;;;;;;;;;2.50;1.50;;;;;21.53;51.32;101005.00;4977365;28;45433;-46
2023/05/07 00:46:37;;;;;;;;;2.00;2.00;;;;;21.53;51.22;100990.03;4976809;28;46707;-47
2023/05/07 00:49:03;;;;;;;;;3.00;2.00;;;;;21.53;51.49;100990.03;4976937;28;45314;-45
2023/05/07 00:51:32;;;;;;;;;2.25;1.50;;;;;21.53;51.57;100990.03;4977047;28;45421;-46
2023/05/07 00:53:57;;;;;;;;;3.00;2.75;;;;;21.53;51.13;100989.16;4977288;28;45400;-47
2023/05/07 00:56:23;;;;;;;;;2.00;2.00;;;;;21.53;51.46;100983.91;4976827;28;46460;-47
2023/05/07 00:58:49;;;;;;;;;3.00;3.00;;;;;21.53;51.39;100979.50;4977253;28;45321;-50
2023/05/07 01:01:16;;;;;;;;;2.00;2.00;;;;;21.57;51.42;100980.16;4976921;28;45394;-52
2023/05/07 01:03:42;;;;;;;;;2.25;2.25;;;;;21.57;51.45;100983.63;4979568;28;45283;-48
2023/05/07 01:06:08;;;;;;;;;4.25;2.25;;;;;21.58;51.21;100981.84;4984552;28;45646;-50
2023/05/07 01:08:34;;;;;;;;;2.00;2.00;;;;;21.58;51.72;100982.69;4982972;28;45923;-49
2023/05/07 01:11:00;;;;;;;;;3.50;2.75;;;;;21.58;51.53;100977.41;4977111;28;45421;-47
2023/05/07 01:13:27;;;;;;;;;2.75;1.75;;;;;21.57;51.47;100969.59;4979043;28;45399;-47
2023/05/07 01:15:52;;;;;;;;;3.00;2.00;;;;;21.58;51.72;100969.50;4981226;28;47137;-46
2023/05/07 01:18:17;;;;;;;;;2.00;2.00;;;;;21.55;51.89;100961.75;4981364;28;45461;-52
2023/05/07 01:20:43;;;;;;;;;2.50;1.00;;;;;21.58;51.82;100966.88;4980318;28;45294;-46
2023/05/07 01:23:11;;;;;;;;;1.00;1.00;;;;;21.57;51.94;100973.09;4979027;28;45511;-49
2023/05/07 01:25:37;;;;;;;;;2.00;2.00;;;;;21.58;51.86;100971.31;4979885;28;46262;-46
2023/05/07 01:28:02;;;;;;;;;1.00;1.00;;;;;21.58;51.68;100960.75;4979919;28;45386;-46
2023/05/07 01:30:29;;;;;;;;;2.50;2.50;;;;;21.59;51.63;100965.97;4980024;28;45908;-47
2023/05/07 01:33:10;;;;;;;;;1.25;1.25;;;;;21.57;51.97;100965.16;4980440;28;45665;-51
2023/05/07 01:35:40;;;;;;;;;1.75;1.75;;;;;21.58;51.94;100958.97;4979606;28;45497;-48
2023/05/07 01:38:06;;;;;;;;;3.75;2.00;;;;;21.58;51.88;100958.13;4979822;28;45893;-48
2023/05/07 01:40:33;;;;;;;;;2.00;2.00;;;;;21.56;51.79;100952.91;4979883;28;45380;-47
2023/05/07 01:43:00;;;;;;;;;2.75;2.50;;;;;21.56;51.75;100952.91;4980009;28;45491;-50
2023/05/07 01:45:25;;;;;;;;;2.00;2.00;;;;;21.58;51.87;100958.97;4979596;28;46424;-46
2023/05/07 01:47:52;;;;;;;;;1.25;1.00;;;;;21.57;51.87;100957.25;4978911;28;45325;-46
2023/05/07 01:50:19;;;;;;;;;2.00;2.00;;;;;21.57;51.47;100953.78;4981989;28;45408;-46
2023/05/07 01:52:45;;;;;;;;;2.00;2.00;;;;;21.57;51.86;100949.34;4984493;28;45372;-47
2023/05/07 01:55:11;;;;;;;;;3.00;1.00;;;;;21.57;51.59;100957.25;4985291;28;46358;-53
2023/05/07 01:57:36;;;;;;;;;2.00;2.00;;;;;21.57;51.59;100954.63;4980068;28;45516;-49
2023/05/07 02:00:04;;;;;;;;;1.25;1.25;;;;;21.58;51.58;100961.59;4979775;28;45281;-51
2023/05/07 02:02:30;;;;;;;;;2.25;2.25;;;;;21.58;51.50;100971.31;4979887;28;45288;-49
2023/05/07 02:04:56;;;;;;;;;3.50;2.00;;;;;21.57;51.28;100965.16;4979649;28;46637;-49
2023/05/07 02:07:22;;;;;;;;;2.00;2.00;;;;;21.57;51.47;100966.97;4979812;28;45658;-48
2023/05/07 02:09:47;;;;;;;;;1.00;1.00;;;;;21.57;51.52;100964.34;4979587;28;45230;-49
2023/05/07 02:12:12;;;;;;;;;1.33;1.33;;;;;21.56;51.57;100963.47;4979084;28;51872;-46
2023/05/07 02:14:37;;;;;;;;;1.25;1.25;;;;;21.56;51.76;100963.47;4978949;28;56685;-52
2023/05/07 02:17:03;;;;;;;;;1.00;0.00;;;;;21.55;51.63;100963.56;4979381;28;45372;-46
2023/05/07 02:19:28;;;;;;;;;2.00;2.00;;;;;21.56;51.47;100963.47;4981288;28;50731;-46
2023/05/07 02:21:54;;;;;;;;;1.25;1.25;;;;;21.57;51.42;100970.44;4998500;28;45484;-49
2023/05/07 02:24:19;;;;;;;;;1.00;1.00;;;;;21.55;51.50;100961.75;4986347;28;45478;-49
2023/05/07 02:26:44;;;;;;;;;2.50;1.00;;;;;21.56;51.42;100968.75;4981803;28;45401;-49
2023/05/07 02:29:10;;;;;;;;;1.00;1.00;;;;;21.56;51.34;100962.63;4982475;28;45387;-54
2023/05/07 02:31:35;;;;;;;;;3.00;1.33;;;;;21.53;51.64;100961.03;4985320;28;58173;-51
2023/05/07 02:34:00;;;;;;;;;1.50;1.50;;;;;21.55;51.51;100968.84;4985139;28;46301;-46
2023/05/07 02:36:29;;;;;;;;;1.00;1.00;;;;;21.55;51.29;100974.94;4979493;28;45324;-50
2023/05/07 02:38:54;;;;;;;;;1.50;0.00;;;;;21.55;51.51;100976.75;4979505;28;45439;-52
2023/05/07 02:41:20;;;;;;;;;2.00;2.00;;;;;21.54;51.18;100970.66;4979255;28;45658;-50
2023/05/07 02:43:46;;;;;;;;;1.00;1.00;;;;;21.53;51.43;100976.84;4978497;28;47903;-47
2023/05/07 02:46:11;;;;;;;;;1.75;1.00;;;;;21.53;51.35;100973.34;4978908;28;45293;-47
2023/05/07 02:48:36;;;;;;;;;1.00;1.00;;;;;21.54;51.41;100975.91;4978847;28;45386;-47
2023/05/07 02:51:02;;;;;;;;;1.25;1.25;;;;;21.53;51.52;100971.56;4977868;28;45341;-50
2023/05/07 02:53:29;;;;;;;;;1.00;1.00;;;;;21.53;51.69;100982.13;4978967;28;46875;-46
2023/05/07 02:55:59;;;;;;;;;5.50;2.50;;;;;21.54;51.17;100975.06;4978987;28;45879;-47
2023/05/07 02:58:24;;;;;;;;;2.00;2.00;;;;;21.54;51.54;100980.31;4979261;28;45307;-48
2023/05/07 03:00:50;;;;;;;;;3.75;2.00;;;;;21.54;51.21;100981.19;4978786;28;45345;-46
2023/05/07 03:03:15;;;;;;;;;2.00;2.00;;;;;21.53;51.38;100974.22;4978311;28;45500;-45
2023/05/07 03:05:41;;;;;;;;;1.50;1.50;;;;;21.53;51.08;100974.22;4978563;28;48058;-46
2023/05/07 03:08:07;;;;;;;;;2.00;2.00;;;;;21.52;51.30;100977.78;4983424;28;45315;-48
2023/05/07 03:10:32;;;;;;;;;3.00;2.00;;;;;21.53;51.32;100978.63;4986897;28;45245;-44
2023/05/07 03:12:58;;;;;;;;;1.75;1.75;;;;;21.53;51.47;100978.63;4982183;28;46390;-46
2023/05/07 03:15:23;;;;;;;;;2.67;2.67;;;;;21.51;51.40;100970.81;4977708;28;68407;-45
2023/05/07 03:17:48;;;;;;;;;3.67;3.00;;;;;21.53;51.09;100973.34;4978082;28;49180;-47
2023/05/07 03:20:14;;;;;;;;;3.75;2.00;;;;;21.52;51.43;100971.66;4978223;28;46676;-44
2023/05/07 03:22:39;;;;;;;;;2.50;2.00;;;;;21.52;51.44;100975.16;4978130;28;47200;-51
2023/05/07 03:25:06;;;;;;;;;3.00;3.00;;;;;21.52;51.18;100969.88;4978296;28;45455;-54
2023/05/07 03:27:31;;;;;;;;;4.50;2.50;;;;;21.52;51.26;100961.09;4978546;28;45423;-53
2023/05/07 03:29:57;;;;;;;;;2.00;2.00;;;;;21.52;51.69;100967.25;4988414;28;45610;-45
2023/05/07 03:32:22;;;;;;;;;2.00;2.00;;;;;21.53;51.45;100970.72;4995108;28;45283;-45
2023/05/07 03:34:47;;;;;;;;;3.25;2.00;;;;;21.53;51.38;100973.34;4984597;28;56502;-49
2023/05/07 03:37:13;;;;;;;;;2.00;2.00;;;;;21.52;51.49;100972.50;4979286;28;45281;-46
2023/05/07 03:39:38;;;;;;;;;2.00;2.00;;;;;21.51;51.53;100970.81;4978183;28;45585;-46
2023/05/07 03:42:03;;;;;;;;;2.25;2.25;;;;;21.52;51.43;100977.78;4976954;28;70512;-45
2023/05/07 03:44:28;;;;;;;;;3.75;2.00;;;;;21.52;51.08;100972.50;4978406;28;45755;-45
2023/05/07 03:46:55;;;;;;;;;2.25;2.00;;;;;21.52;51.38;100976.91;4985018;28;45316;-49
2023/05/07 03:49:20;;;;;;;;;1.75;1.00;;;;;21.53;51.37;100984.75;4986556;28;45158;-45
2023/05/07 03:51:45;;;;;;;;;3.25;2.25;;;;;21.56;51.43;100989.84;4977535;28;46014;-47
2023/05/07 03:54:11;;;;;;;;;1.67;1.67;;;;;21.58;51.14;100987.97;4977158;28;63716;-48
2023/05/07 03:56:36;;;;;;;;;1.50;1.50;;;;;21.61;51.11;100993.13;4977887;28;45227;-46
2023/05/07 03:59:01;;;;;;;;;2.00;2.00;;;;;21.62;51.22;100988.66;4978054;28;46180;-46
2023/05/07 04:01:27;;;;;;;;;3.00;1.50;;;;;21.66;51.15;100978.81;4977495;28;46099;-46
2023/05/07 04:03:52;;;;;;;;;3.00;1.25;;;;;21.68;50.95;100983.06;4977240;28;56038;-46
2023/05/07 04:06:17;;;;;;;;;1.25;1.25;;;;;21.71;51.21;100974.09;4977471;28;47003;-46
2023/05/07 04:08:43;;;;;;;;;1.00;1.00;;;;;21.73;50.99;100974.88;4977700;28;45488;-47
2023/05/07 04:11:08;;;;;;;;;1.25;1.00;;;;;21.74;51.23;100974.78;4977450;28;46994;-47
2023/05/07 04:13:34;;;;;;;;;1.00;1.00;;;;;21.74;51.08;100980.06;4977565;28;45345;-48
2023/05/07 04:16:02;;;;;;;;;1.00;1.00;;;;;21.78;51.01;100986.00;4978116;28;45828;-48
2023/05/07 04:18:27;;;;;;;;;1.75;1.75;;;;;21.79;51.14;100985.06;4977825;28;45389;-47
2023/05/07 04:20:52;;;;;;;;;1.00;1.00;;;;;21.80;51.12;100991.19;4977607;28;46493;-50
2023/05/07 04:23:18;;;;;;;;;0.50;0.50;;;;;21.82;51.23;100994.59;4977862;28;45380;-47
2023/05/07 04:25:43;;;;;;;;;1.00;1.00;;;;;21.84;51.01;101000.63;4982274;28;53370;-48
2023/05/07 04:28:08;;;;;;;;;1.00;1.00;;;;;21.84;50.85;100998.84;4998128;28;45302;-49
2023/05/07 04:30:33;;;;;;;;;3.33;2.00;;;;;21.84;50.54;101001.47;4993096;28;75066;-50
2023/05/07 04:32:59;;;;;;;;;1.25;1.00;;;;;21.82;50.77;101003.34;4977729;28;45224;-51
2023/05/07 04:35:24;;;;;;;;;1.00;1.00;;;;;21.80;50.85;101001.75;4976736;28;60442;-50
2023/05/07 04:37:49;;;;;;;;;1.75;1.00;;;;;21.80;51.14;101007.88;4977554;28;45565;-48
2023/05/07 04:40:15;;;;;;;;;1.00;1.00;;;;;21.78;50.59;101004.47;4976674;28;61915;-48
2023/05/07 04:42:41;;;;;;;;;1.00;1.00;;;;;21.76;50.84;101009.84;4977717;28;45721;-51
2023/05/07 04:45:06;;;;;;;;;1.00;1.00;;;;;21.75;50.83;101007.31;4979663;28;45229;-50
2023/05/07 04:47:32;;;;;;;;;1.00;1.00;;;;;21.75;50.98;101015.22;4978973;28;45550;-47
2023/05/07 04:49:58;;;;;;;;;3.00;2.00;;;;;21.73;50.74;101022.34;4980711;28;47237;-46
2023/05/07 04:52:23;;;;;;;;;1.00;1.00;;;;;21.72;51.02;101029.41;4987384;28;45381;-49
2023/05/07 04:54:49;;;;;;;;;1.00;1.00;;;;;21.70;50.84;101026.03;4991200;28;45135;-47
2023/05/07 04:57:14;;;;;;;;;1.75;0.00;;;;;21.69;50.72;101023.47;4979403;28;45411;-47
2023/05/07 04:59:39;;;;;;;;;1.00;1.00;;;;;21.69;50.85;101028.75;4981494;28;61264;-48
2023/05/07 05:02:05;;;;;;;;;1.25;1.00;;;;;21.68;50.83;101029.66;4982479;28;45364;-50
2023/05/07 05:04:30;;;;;;;;;0.75;0.75;;;;;21.67;50.89;101027.97;4980975;28;45382;-50
2023/05/07 05:06:56;;;;;;;;;2.50;0.75;;;;;21.66;50.90;101029.78;4977300;28;45333;-48
2023/05/07 05:09:21;;;;;;;;;1.00;1.00;;;;;21.65;50.95;101030.72;4976713;28;45670;-49
2023/05/07 05:11:46;;;;;;;;;1.00;1.00;;;;;21.64;50.87;101030.81;4977390;28;45390;-47
2023/05/07 05:14:12;;;;;;;;;0.00;0.00;;;;;21.63;50.96;101024.66;4977483;28;45404;-47
2023/05/07 05:16:37;;;;;;;;;1.00;1.00;;;;;21.62;50.89;101034.38;4977559;28;45309;-49
2023/05/07 05:19:02;;;;;;;;;2.50;1.00;;;;;21.64;51.02;101033.44;4976816;28;45433;-51
2023/05/07 05:21:28;;;;;;;;;0.00;0.00;;;;;21.62;50.91;101037.00;4977085;28;45507;-50
2023/05/07 05:23:53;;;;;;;;;0.00;0.00;;;;;21.61;50.84;101039.72;4976443;28;58107;-48
2023/05/07 05:26:20;;;;;;;;;1.00;1.00;;;;;21.60;50.86;101038.03;4977193;28;45592;-50
2023/05/07 05:28:46;;;;;;;;;0.50;0.50;;;;;21.61;51.27;101045.84;4976986;28;47016;-48
2023/05/07 05:31:11;;;;;;;;;1.00;1.00;;;;;21.61;51.17;101053.78;4977277;28;45369;-50
2023/05/07 05:33:37;;;;;;;;;0.00;0.00;;;;;21.59;51.11;101047.72;4978119;28;45428;-48
2023/05/07 05:36:02;;;;;;;;;1.00;0.00;;;;;21.59;51.21;101042.44;4977975;28;45202;-49
2023/05/07 05:38:27;;;;;;;;;0.50;0.50;;;;;21.60;51.01;101049.44;4977397;28;45406;-47
2023/05/07 05:40:53;;;;;;;;;2.00;0.00;;;;;21.58;50.86;101051.28;4978655;28;60073;-50
2023/05/07 05:43:18;;;;;;;;;1.00;1.00;;;;;21.57;50.72;101049.56;4985649;28;57955;-48
2023/05/07 05:45:43;;;;;;;;;1.00;0.00;;;;;21.58;51.18;101056.53;4992664;28;54307;-51
2023/05/07 05:48:09;;;;;;;;;1.00;1.00;;;;;21.58;51.14;101058.34;4995695;28;46460;-46
2023/05/07 05:50:36;;;;;;;;;0.00;0.00;;;;;21.54;50.90;101055.03;4994100;28;45294;-51
2023/05/07 05:53:02;;;;;;;;;0.00;0.00;;;;;21.55;51.10;101051.44;4990275;28;45333;-50
2023/05/07 05:55:27;;;;;;;;;0.00;0.00;;;;;21.58;50.82;101060.97;4989920;28;45448;-51
2023/05/07 05:57:52;;;;;;;;;0.50;0.50;;;;;21.57;51.13;101065.38;4998305;28;45406;-48
2023/05/07 06:00:18;;;;;;;;;1.00;0.75;;;;;21.58;50.94;101061.81;4998742;28;44731;-52
2023/05/07 06:02:43;;;;;;;;;0.00;0.00;;;;;21.56;51.02;101055.78;4995619;28;44772;-50
2023/05/07 06:05:09;;;;;;;;;1.00;1.00;;;;;21.55;51.11;101056.72;4991530;28;45159;-50
2023/05/07 06:07:34;;;;;;;;;0.00;0.00;;;;;21.55;51.16;101059.34;4985683;28;47041;-52
2023/05/07 06:10:03;;;;;;;;;0.50;0.50;;;;;21.55;51.20;101067.25;4982644;28;45189;-48
2023/05/07 06:12:28;;;;;;;;;0.00;0.00;;;;;21.54;50.93;101062.94;4980232;28;45592;-48
2023/05/07 06:14:53;;;;;;;;;0.00;0.00;;;;;21.54;50.97;101065.59;4979623;28;45547;-49
2023/05/07 06:17:19;;;;;;;;;0.00;0.00;;;;;21.52;51.17;101067.44;4980823;28;46093;-48
2023/05/07 06:19:44;;;;;;;;;0.00;0.00;;;;;21.54;50.90;101070.84;4987294;28;45447;-48
2023/05/07 06:22:09;;;;;;;;;0.00;0.00;;;;;21.54;51.00;101075.25;4986577;28;54910;-49
2023/05/07 06:24:35;;;;;;;;;0.00;0.00;;;;;21.54;50.97;101076.13;4978909;28;45305;-49
2023/05/07 06:27:00;;;;;;;;;1.00;1.00;;;;;21.54;50.94;101077.91;4979529;28;45423;-47
2023/05/07 06:29:25;;;;;;;;;0.75;0.50;;;;;21.53;51.08;101077.06;4978533;28;59607;-47
2023/05/07 06:31:52;;;;;;;;;1.00;1.00;;;;;21.55;50.62;101076.97;4980584;28;45333;-48
2023/05/07 06:34:18;;;;;;;;;1.50;0.00;;;;;21.54;51.04;101070.00;4985475;28;45394;-49
2023/05/07 06:36:43;;;;;;;;;1.00;0.00;;;;;21.53;50.90;101071.78;4998156;28;45388;-46
2023/05/07 06:39:08;;;;;;;;;0.00;0.00;;;;;21.53;50.97;101069.16;4985099;28;45330;-51
2023/05/07 06:41:35;;;;;;;;;1.00;0.00;;;;;21.53;50.90;101078.84;4979401;28;45250;-48
2023/05/07 06:44:01;;;;;;;;;0.00;0.00;;;;;21.53;50.83;101073.56;4978851;28;45613;-47
2023/05/07 06:46:28;;;;;;;;;1.50;0.00;;;;;21.53;50.98;101076.19;4978466;28;47063;-49
2023/05/07 06:48:53;;;;;;;;;0.00;0.00;;;;;21.53;50.98;101078.84;4979016;28;45469;-51
2023/05/07 06:51:18;;;;;;;;;0.00;0.00;;;;;21.54;51.24;101076.13;4978932;28;45357;-46
2023/05/07 06:53:44;;;;;;;;;1.50;0.00;;;;;21.53;51.13;101078.84;4983499;28;45410;-48
2023/05/07 06:56:09;;;;;;;;;0.00;0.00;;;;;21.53;50.85;101090.25;4985735;28;47240;-49
2023/05/07 06:58:34;;;;;;;;;0.00;0.00;;;;;21.53;50.92;101087.63;4985747;28;45429;-46
2023/05/07 07:01:00;;;;;;;;;0.00;0.00;;;;;21.52;51.11;101085.03;4983618;28;45304;-48
2023/05/07 07:03:25;;;;;;;;;0.00;0.00;;;;;21.54;50.92;101091.09;4979116;28;45344;-46
2023/05/07 07:05:54;;;;;;;;;0.00;0.00;;;;;21.53;51.08;101090.25;4977551;28;47216;-49
2023/05/07 07:08:21;;;;;;;;;0.50;0.50;;;;;21.52;50.98;101090.31;4977872;28;45246;-50
2023/05/07 07:10:47;;;;;;;;;0.25;0.25;;;;;21.53;50.99;101090.25;4978742;28;45291;-48
2023/05/07 07:13:12;;;;;;;;;0.00;0.00;;;;;21.54;51.10;101101.63;4979188;28;45538;-49
2023/05/07 07:15:38;;;;;;;;;0.00;0.00;;;;;21.52;51.15;101096.47;4977819;28;46093;-49
2023/05/07 07:18:04;;;;;;;;;0.00;0.00;;;;;21.53;50.98;101102.56;4977276;28;45332;-45
2023/05/07 07:20:29;;;;;;;;;1.00;1.00;;;;;21.54;50.77;101101.63;4978574;28;45345;-49
2023/05/07 07:22:54;;;;;;;;;0.00;0.00;;;;;21.53;50.73;101102.56;4978646;28;45274;-49
2023/05/07 07:25:20;;;;;;;;;0.50;0.00;;;;;21.53;50.82;101106.06;4978048;28;57635;-49
2023/05/07 07:27:45;;;;;;;;;0.00;0.00;;;;;21.53;51.12;101111.34;4978770;28;46131;-48
2023/05/07 07:30:11;;;;;;;;;0.25;0.25;;;;;21.52;50.85;101109.66;4978980;28;45779;-52
2023/05/07 07:32:36;;;;;;;;;1.00;0.00;;;;;21.53;51.04;101116.63;4978723;28;45276;-51
2023/05/07 07:35:02;;;;;;;;;0.00;0.00;;;;;21.53;51.13;101121.91;4982747;28;46419;-47
2023/05/07 07:37:27;;;;;;;;;0.00;0.00;;;;;21.51;51.18;101113.22;4985926;28;45324;-50
2023/05/07 07:39:52;;;;;;;;;1.00;0.00;;;;;21.53;50.98;101121.03;4982485;28;45643;-47
2023/05/07 07:42:18;;;;;;;;;0.00;0.00;;;;;21.53;51.09;101129.81;4978890;28;45341;-49
2023/05/07 07:44:43;;;;;;;;;0.00;0.00;;;;;21.52;50.85;101125.47;4978171;28;46758;-50
2023/05/07 07:47:09;;;;;;;;;0.00;0.00;;;;;21.53;51.04;101126.31;4978569;28;45388;-50
2023/05/07 07:49:35;;;;;;;;;0.00;0.00;;;;;21.50;50.84;101121.22;4978701;28;45341;-47
2023/05/07 07:52:00;;;;;;;;;2.00;0.00;;;;;21.52;50.89;101124.59;4986330;28;45174;-47
2023/05/07 07:54:25;;;;;;;;;0.75;0.00;;;;;21.52;50.88;101122.84;4991615;28;46418;-52
2023/05/07 07:56:51;;;;;;;;;0.00;0.00;;;;;21.51;51.14;101122.91;4996934;28;44762;-47
2023/05/07 07:59:18;;;;;;;;;0.00;0.00;;;;;21.50;50.47;101121.22;4985796;28;45252;-47
2023/05/07 08:01:44;;;;;;;;;0.50;0.00;;;;;21.53;50.98;101127.19;4984565;28;45393;-49
2023/05/07 08:04:10;;;;;;;;;0.00;0.00;;;;;21.52;51.08;101122.84;4984735;28;45501;-49
2023/05/07 08:06:35;;;;;;;;;0.50;0.00;;;;;21.53;51.08;101132.44;4984271;28;45320;-48
2023/05/07 08:09:00;;;;;;;;;0.00;0.00;;;;;21.54;50.85;101133.28;4985097;28;45186;-48
2023/05/07 08:11:26;;;;;;;;;0.00;0.00;;;;;21.54;50.90;101136.78;4985512;28;45281;-45
2023/05/07 08:13:51;;;;;;;;;0.75;0.75;;;;;21.53;50.94;101132.44;4992005;28;45421;-48
2023/05/07 08:16:17;;;;;;;;;0.25;0.00;;;;;21.53;50.71;101137.72;4991364;28;45308;-48
2023/05/07 08:18:42;;;;;;;;;0.00;0.00;;;;;21.54;50.98;101141.19;4983093;28;45301;-48
2023/05/07 08:21:08;;;;;;;;;0.00;0.00;;;;;21.53;51.01;101148.28;4980652;28;61955;-50
2023/05/07 08:23:34;;;;;;;;;0.00;0.00;;;;;21.54;50.61;101151.75;4995380;28;45709;-50
2023/05/07 08:26:01;;;;;;;;;0.00;0.00;;;;;21.54;50.67;101147.34;4986749;28;45727;-51
2023/05/07 08:28:27;;;;;;;;;0.00;0.00;;;;;21.53;51.04;101153.56;4982714;28;45238;-49
2023/05/07 08:30:52;;;;;;;;;0.75;0.00;;;;;21.54;50.83;101154.38;4984961;28;45529;-49
2023/05/07 08:33:17;;;;;;;;;0.00;0.00;;;;;21.55;51.05;101154.28;4984873;28;46427;-51
2023/05/07 08:35:43;;;;;;;;;2.00;0.00;;;;;21.54;50.75;101164.94;4984118;28;45301;-48
2023/05/07 08:38:08;;;;;;;;;1.00;0.00;;;;;21.52;50.82;101162.41;4981311;28;63126;-51
2023/05/07 08:40:38;;;;;;;;;0.00;0.00;;;;;21.54;51.07;101164.94;4983903;28;50415;-47
2023/05/07 08:43:05;;;;;;;;;0.00;0.00;;;;;21.53;50.98;101163.22;4994372;28;46552;-48
2023/05/07 08:45:33;;;;;;;;;0.00;0.00;;;;;21.54;50.82;101160.53;4987277;28;45806;-48
2023/05/07 08:48:00;;;;;;;;;0.00;0.00;;;;;21.55;50.84;101171.91;4980847;28;45285;-47
2023/05/07 08:50:25;;;;;;;;;0.00;0.00;;;;;21.53;50.78;101163.22;4981375;28;45470;-47
2023/05/07 08:52:51;;;;;;;;;0.00;0.00;;;;;21.54;50.63;101168.44;4984547;28;46599;-51
2023/05/07 08:55:17;;;;;;;;;1.00;0.00;;;;;21.55;51.11;101177.19;4980947;28;45416;-54
2023/05/07 08:57:42;;;;;;;;;0.00;0.00;;;;;21.55;50.87;101161.38;4977482;28;48495;-51
2023/05/07 09:00:09;;;;;;;;;0.00;0.00;;;;;21.54;50.81;101171.06;4977774;28;45258;-49
2023/05/07 09:02:36;;;;;;;;;0.00;0.00;;;;;21.54;50.83;101165.81;4976953;28;45518;-49
2023/05/07 09:05:01;;;;;;;;;1.00;0.00;;;;;21.53;50.85;101164.09;4978253;28;45264;-53
2023/05/07 09:07:27;;;;;;;;;0.00;0.00;;;;;21.53;50.93;101171.16;4975866;28;45392;-49
2023/05/07 09:09:54;;;;;;;;;0.00;0.00;;;;;21.53;50.91;101172.00;4977245;28;45313;-48
2023/05/07 09:12:20;;;;;;;;;1.00;1.00;;;;;21.55;50.95;101169.28;4977038;28;46327;-49
2023/05/07 09:14:46;;;;;;;;;0.00;0.00;;;;;21.54;50.88;101171.06;4976784;28;45334;-49
2023/05/07 09:17:12;;;;;;;;;0.00;0.00;;;;;21.55;50.83;101172.75;4977043;28;45396;-48
2023/05/07 09:19:37;;;;;;;;;0.00;0.00;;;;;21.54;51.04;101172.84;4977047;28;45468;-48
2023/05/07 09:22:04;;;;;;;;;0.50;0.00;;;;;21.54;50.90;101171.06;4976863;28;45324;-45
2023/05/07 09:24:34;;;;;;;;;0.00;0.00;;;;;21.54;51.03;101173.72;4976969;28;45780;-47
2023/05/07 09:27:01;;;;;;;;;0.00;0.00;;;;;21.56;50.82;101169.19;4977202;28;45412;-50
2023/05/07 09:29:28;;;;;;;;;0.00;0.00;;;;;21.56;51.02;101174.47;4981693;28;45389;-49
2023/05/07 09:31:54;;;;;;;;;0.00;0.00;;;;;21.55;51.00;101167.47;4983729;28;46345;-48
2023/05/07 09:34:19;;;;;;;;;1.25;1.00;;;;;21.55;50.75;101166.63;4979700;28;45238;-49
2023/05/07 09:36:45;;;;;;;;;0.00;0.00;;;;;21.55;51.04;101175.38;4976801;28;45650;-47
2023/05/07 09:39:10;;;;;;;;;0.00;0.00;;;;;21.57;50.83;101175.31;4978811;28;45717;-50
2023/05/07 09:41:46;;;;;;;;;0.00;0.00;;;;;21.57;50.99;101177.97;4980178;28;45481;-49
2023/05/07 09:44:14;;;;;;;;;0.00;0.00;;;;;21.56;50.94;101174.47;4983070;28;45763;-48
2023/05/07 09:46:42;;;;;;;;;0.00;0.00;;;;;21.57;50.71;101176.16;4982728;28;45357;-48
2023/05/07 09:49:13;;;;;;;;;0.00;0.00;;;;;21.57;50.63;101170.06;4984634;28;45432;-48
2023/05/07 09:51:51;;;;;;;;;0.00;0.00;;;;;21.58;50.79;101177.03;5001482;28;46329;-49
2023/05/07 09:54:17;;;;;;;;;0.00;0.00;;;;;21.56;50.69;101174.47;5003149;28;45690;-49
2023/05/07 09:56:44;;;;;;;;;0.75;0.75;;;;;21.58;50.66;101180.50;5001320;28;45353;-49
2023/05/07 09:59:15;;;;;;;;;0.00;0.00;;;;;21.58;50.69;101177.03;4989405;28;45215;-46
2023/05/07 10:01:42;;;;;;;;;0.00;0.00;;;;;21.58;50.79;101177.03;4982886;28;46905;-47
2023/05/07 10:04:08;;;;;;;;;0.00;0.00;;;;;21.57;50.79;101178.81;4988942;28;45301;-47
2023/05/07 10:06:34;;;;;;;;;1.00;0.00;;;;;21.54;50.84;101171.06;4990936;28;45290;-47
2023/05/07 10:09:00;;;;;;;;;0.50;0.50;;;;;21.57;50.78;101173.53;5000125;28;45247;-47
2023/05/07 10:11:26;;;;;;;;;0.00;0.00;;;;;21.57;50.96;101181.44;4985678;28;45475;-48
2023/05/07 10:13:52;;;;;;;;;0.00;0.00;;;;;21.57;50.79;101184.06;4981109;28;45238;-48
2023/05/07 10:16:18;;;;;;;;;0.50;0.00;;;;;21.57;50.50;101184.06;4979810;28;45259;-49
2023/05/07 10:18:44;;;;;;;;;0.25;0.25;;;;;21.57;50.93;101186.72;4979808;28;45697;-49
2023/05/07 10:21:19;;;;;;;;;1.00;0.00;;;;;21.57;50.81;101186.72;4979277;28;46201;-51
2023/05/07 10:23:47;;;;;;;;;0.75;0.75;;;;;21.57;50.86;101181.44;4979145;28;45378;-49
2023/05/07 10:26:15;;;;;;;;;0.00;0.00;;;;;21.57;50.81;101185.88;4979468;28;45477;-48
2023/05/07 10:28:47;;;;;;;;;0.00;0.00;;;;;21.58;50.66;101183.16;4979646;28;45323;-49
2023/05/07 10:31:21;;;;;;;;;0.00;0.00;;;;;21.59;50.54;101184.03;4979036;28;46586;-47
2023/05/07 10:33:51;;;;;;;;;0.25;0.25;;;;;21.60;50.77;101191.88;4979195;28;45341;-50
2023/05/07 10:36:17;;;;;;;;;0.00;0.00;;;;;21.59;50.84;101184.88;4979133;28;45167;-48
2023/05/07 10:38:43;;;;;;;;;0.00;0.00;;;;;21.60;50.65;101186.59;4979358;28;45238;-47
2023/05/07 10:41:08;;;;;;;;;0.25;0.25;;;;;21.61;50.69;101183.03;4978907;28;47021;-46
2023/05/07 10:43:41;;;;;;;;;0.50;0.50;;;;;21.60;50.81;101188.38;4979005;28;45625;-48
2023/05/07 10:46:15;;;;;;;;;0.00;0.00;;;;;21.60;50.70;101181.31;4981274;28;45376;-46
2023/05/07 10:49:03;;;;;;;;;0.25;0.25;;;;;21.60;50.99;101186.59;4987019;28;45290;-47
2023/05/07 10:51:30;;;;;;;;;0.00;0.00;;;;;21.61;50.78;101187.44;5004012;28;46617;-47
2023/05/07 10:54:10;;;;;;;;;1.00;1.00;;;;;21.60;50.99;101189.22;4984727;28;45268;-46
2023/05/07 10:56:43;;;;;;;;;1.00;0.00;;;;;21.60;50.70;101186.59;4977896;28;45257;-50
2023/05/07 10:59:20;;;;;;;;;0.00;0.00;;;;;21.61;51.16;101192.69;4979093;28;45445;-53
2023/05/07 11:01:57;;;;;;;;;0.00;0.00;;;;;21.59;50.44;101191.97;4979438;28;46528;-53
2023/05/07 11:04:27;;;;;;;;;0.00;0.00;;;;;21.59;50.72;101189.31;4980859;28;45606;-53
2023/05/07 11:07:12;;;;;;;;;0.50;0.50;;;;;21.58;50.83;101193.69;5000201;28;44698;-50
2023/05/07 11:09:53;;;;;;;;;1.00;1.00;;;;;21.58;50.80;101196.34;4984475;28;45274;-49
2023/05/07 11:12:40;;;;;;;;;0.25;0.25;;;;;21.57;50.87;101202.53;4978536;28;47327;-48
2023/05/07 11:15:15;;;;;;;;;0.25;0.25;;;;;21.57;50.71;101209.63;4978457;28;45300;-48
2023/05/07 11:17:59;;;;;;;;;0.00;0.00;;;;;21.55;50.85;101199.13;4978658;28;45325;-49
2023/05/07 11:20:43;;;;;;;;;0.75;0.75;;;;;21.55;50.85;101198.28;4979294;28;45483;-48